sensor_id;sensor_type;location;lat;lon;timestamp;P1;durP1;ratioP1;P2;durP2;ratioP2
20995;SDS011;10656;52.200;21.052;2024-03-08T00:06:01;45.57;;;27.20;;
20995;SDS011;10656;52.200;21.052;2024-03-08T00:31:42;44.90;;;25.80;;
20995;SDS011;10656;52.200;21.052;2024-03-08T01:02:23;52.43;;;27.53;;
20995;SDS011;10656;52.200;21.052;2024-03-08T01:06:43;46.33;;;27.60;;
20995;SDS011;10656;52.200;21.052;2024-03-08T01:22:23;51.73;;;28.07;;
20995;SDS011;10656;52.200;21.052;2024-03-08T01:52:21;52.80;;;27.43;;
20995;SDS011;10656;52.200;21.052;2024-03-08T02:18:12;56.90;;;31.83;;
20995;SDS011;10656;52.200;21.052;2024-03-08T02:48:42;62.93;;;38.00;;
20995;SDS011;10656;52.200;21.052;2024-03-08T03:09:09;72.23;;;43.10;;
20995;SDS011;10656;52.200;21.052;2024-03-08T03:34:29;71.83;;;41.60;;
20995;SDS011;10656;52.200;21.052;2024-03-08T03:54:32;70.57;;;41.23;;
20995;SDS011;10656;52.200;21.052;2024-03-08T04:19:47;76.83;;;43.70;;
20995;SDS011;10656;52.200;21.052;2024-03-08T05:46:16;125.50;;;67.83;;
20995;SDS011;10656;52.200;21.052;2024-03-08T06:16:29;121.40;;;65.40;;
20995;SDS011;10656;52.200;21.052;2024-03-08T06:52:16;97.13;;;58.57;;
20995;SDS011;10656;52.200;21.052;2024-03-08T07:22:25;66.33;;;41.50;;
20995;SDS011;10656;52.200;21.052;2024-03-08T07:48:06;42.63;;;27.03;;
20995;SDS011;10656;52.200;21.052;2024-03-08T08:28:31;43.67;;;24.80;;
20995;SDS011;10656;52.200;21.052;2024-03-08T08:48:33;35.90;;;23.00;;
20995;SDS011;10656;52.200;21.052;2024-03-08T09:14:12;23.57;;;15.43;;
20995;SDS011;10656;52.200;21.052;2024-03-08T09:44:03;18.67;;;13.00;;
20995;SDS011;10656;52.200;21.052;2024-03-08T10:09:48;23.17;;;13.37;;
20995;SDS011;10656;52.200;21.052;2024-03-08T10:12:28;22.23;;;13.63;;
20995;SDS011;10656;52.200;21.052;2024-03-08T10:29:49;20.77;;;12.70;;
20995;SDS011;10656;52.200;21.052;2024-03-08T10:55:41;17.33;;;11.77;;
20995;SDS011;10656;52.200;21.052;2024-03-08T11:21:11;18.27;;;11.97;;
20995;SDS011;10656;52.200;21.052;2024-03-08T12:26:34;19.37;;;11.07;;
20995;SDS011;10656;52.200;21.052;2024-03-08T12:56:57;17.27;;;10.23;;
20995;SDS011;10656;52.200;21.052;2024-03-08T13:22:25;21.00;;;10.70;;
20995;SDS011;10656;52.200;21.052;2024-03-08T13:25:22;16.23;;;10.00;;
20995;SDS011;10656;52.200;21.052;2024-03-08T13:43:11;17.67;;;10.67;;
20995;SDS011;10656;52.200;21.052;2024-03-08T16:19:44;17.83;;;10.37;;
20995;SDS011;10656;52.200;21.052;2024-03-08T16:29:53;18.37;;;10.83;;
20995;SDS011;10656;52.200;21.052;2024-03-08T17:06:00;20.67;;;12.43;;
20995;SDS011;10656;52.200;21.052;2024-03-08T17:30:59;19.77;;;11.23;;
20995;SDS011;10656;52.200;21.052;2024-03-08T17:51:27;20.50;;;11.03;;
20995;SDS011;10656;52.200;21.052;2024-03-08T18:16:52;20.13;;;12.13;;
20995;SDS011;10656;52.200;21.052;2024-03-08T18:42:07;24.23;;;12.07;;
20995;SDS011;10656;52.200;21.052;2024-03-08T19:02:13;26.00;;;12.87;;
20995;SDS011;10656;52.200;21.052;2024-03-08T19:53:01;55.07;;;29.27;;
20995;SDS011;10656;52.200;21.052;2024-03-08T20:59:07;30.80;;;18.83;;
20995;SDS011;10656;52.200;21.052;2024-03-08T21:24:19;36.10;;;18.60;;
20995;SDS011;10656;52.200;21.052;2024-03-08T21:44:21;37.10;;;18.60;;
20995;SDS011;10656;52.200;21.052;2024-03-08T23:36:43;79.07;;;39.90;;
